sensor_id;sensor_type;location;lat;lon;timestamp;P1;durP1;ratioP1;P2;durP2;ratioP2
35891;SDS011;21993;42.672;23.296;2023-05-10T00:01:40;7.30;;;5.53;;
35891;SDS011;21993;42.672;23.296;2023-05-10T00:04:06;7.00;;;5.40;;
35891;SDS011;21993;42.672;23.296;2023-05-10T00:06:31;6.37;;;5.27;;
35891;SDS011;21993;42.672;23.296;2023-05-10T00:08:57;6.17;;;5.57;;
35891;SDS011;21993;42.672;23.296;2023-05-10T00:11:22;5.93;;;5.20;;
35891;SDS011;21993;42.672;23.296;2023-05-10T00:13:48;9.60;;;5.63;;
35891;SDS011;21993;42.672;23.296;2023-05-10T00:16:13;6.80;;;6.00;;
35891;SDS011;21993;42.672;23.296;2023-05-10T00:18:39;9.53;;;6.37;;
35891;SDS011;21993;42.672;23.296;2023-05-10T00:21:05;6.30;;;5.50;;
35891;SDS011;21993;42.672;23.296;2023-05-10T00:23:31;10.13;;;5.63;;
35891;SDS011;21993;42.672;23.296;2023-05-10T00:25:56;5.90;;;5.30;;
35891;SDS011;21993;42.672;23.296;2023-05-10T00:28:22;7.80;;;5.83;;
35891;SDS011;21993;42.672;23.296;2023-05-10T00:30:48;7.03;;;5.40;;
35891;SDS011;21993;42.672;23.296;2023-05-10T00:33:13;6.93;;;5.80;;
35891;SDS011;21993;42.672;23.296;2023-05-10T00:35:38;7.07;;;5.83;;
35891;SDS011;21993;42.672;23.296;2023-05-10T00:38:04;6.83;;;5.53;;
35891;SDS011;21993;42.672;23.296;2023-05-10T00:40:29;5.90;;;5.30;;
35891;SDS011;21993;42.672;23.296;2023-05-10T00:42:55;7.23;;;6.13;;
35891;SDS011;21993;42.672;23.296;2023-05-10T00:45:21;6.80;;;6.10;;
35891;SDS011;21993;42.672;23.296;2023-05-10T00:47:47;6.43;;;5.83;;
35891;SDS011;21993;42.672;23.296;2023-05-10T00:50:13;7.93;;;6.27;;
35891;SDS011;21993;42.672;23.296;2023-05-10T00:52:39;9.10;;;5.77;;
35891;SDS011;21993;42.672;23.296;2023-05-10T00:55:05;9.73;;;6.87;;
35891;SDS011;21993;42.672;23.296;2023-05-10T00:57:31;8.70;;;6.50;;
35891;SDS011;21993;42.672;23.296;2023-05-10T00:59:57;8.93;;;6.10;;
35891;SDS011;21993;42.672;23.296;2023-05-10T01:02:24;7.53;;;6.53;;
35891;SDS011;21993;42.672;23.296;2023-05-10T01:04:49;7.70;;;6.40;;
35891;SDS011;21993;42.672;23.296;2023-05-10T01:07:15;8.43;;;6.30;;
35891;SDS011;21993;42.672;23.296;2023-05-10T01:09:40;8.40;;;7.10;;
35891;SDS011;21993;42.672;23.296;2023-05-10T01:12:06;10.20;;;7.30;;
35891;SDS011;21993;42.672;23.296;2023-05-10T01:14:32;7.87;;;6.50;;
35891;SDS011;21993;42.672;23.296;2023-05-10T01:16:58;8.33;;;6.67;;
35891;SDS011;21993;42.672;23.296;2023-05-10T01:19:26;8.53;;;7.13;;
35891;SDS011;21993;42.672;23.296;2023-05-10T01:22:10;10.30;;;7.17;;
35891;SDS011;21993;42.672;23.296;2023-05-10T01:33:41;7.13;;;6.23;;
35891;SDS011;21993;42.672;23.296;2023-05-10T01:36:26;6.97;;;6.10;;
35891;SDS011;21993;42.672;23.296;2023-05-10T01:44:34;5.73;;;5.10;;
35891;SDS011;21993;42.672;23.296;2023-05-10T01:47:07;6.47;;;5.70;;
35891;SDS011;21993;42.672;23.296;2023-05-10T01:49:47;5.80;;;5.20;;
35891;SDS011;21993;42.672;23.296;2023-05-10T01:52:22;5.60;;;5.07;;
35891;SDS011;21993;42.672;23.296;2023-05-10T01:54:56;5.90;;;5.03;;
35891;SDS011;21993;42.672;23.296;2023-05-10T01:57:27;7.47;;;5.57;;
35891;SDS011;21993;42.672;23.296;2023-05-10T01:59:58;7.47;;;5.03;;
35891;SDS011;21993;42.672;23.296;2023-05-10T02:02:25;4.93;;;4.43;;
35891;SDS011;21993;42.672;23.296;2023-05-10T02:04:54;5.00;;;4.60;;
35891;SDS011;21993;42.672;23.296;2023-05-10T02:07:22;5.07;;;4.50;;
35891;SDS011;21993;42.672;23.296;2023-05-10T02:09:48;5.90;;;4.90;;
35891;SDS011;21993;42.672;23.296;2023-05-10T02:12:15;6.20;;;4.97;;
35891;SDS011;21993;42.672;23.296;2023-05-10T02:14:42;5.07;;;4.57;;
35891;SDS011;21993;42.672;23.296;2023-05-10T02:17:09;4.93;;;4.43;;
35891;SDS011;21993;42.672;23.296;2023-05-10T02:19:38;4.73;;;4.23;;
35891;SDS011;21993;42.672;23.296;2023-05-10T02:22:05;5.37;;;4.50;;
35891;SDS011;21993;42.672;23.296;2023-05-10T02:24:33;4.90;;;4.40;;
35891;SDS011;21993;42.672;23.296;2023-05-10T02:27:01;7.70;;;4.70;;
35891;SDS011;21993;42.672;23.296;2023-05-10T02:29:28;5.47;;;4.37;;
35891;SDS011;21993;42.672;23.296;2023-05-10T02:31:56;5.57;;;4.80;;
35891;SDS011;21993;42.672;23.296;2023-05-10T02:34:22;5.67;;;4.37;;
35891;SDS011;21993;42.672;23.296;2023-05-10T02:36:49;5.07;;;4.30;;
35891;SDS011;21993;42.672;23.296;2023-05-10T02:39:16;5.80;;;4.23;;
35891;SDS011;21993;42.672;23.296;2023-05-10T02:41:45;6.13;;;4.93;;
35891;SDS011;21993;42.672;23.296;2023-05-10T02:44:12;5.40;;;4.30;;
35891;SDS011;21993;42.672;23.296;2023-05-10T02:46:40;6.37;;;4.70;;
35891;SDS011;21993;42.672;23.296;2023-05-10T02:49:05;5.17;;;4.67;;
35891;SDS011;21993;42.672;23.296;2023-05-10T02:51:32;4.53;;;4.00;;
35891;SDS011;21993;42.672;23.296;2023-05-10T02:54:02;5.70;;;4.73;;
35891;SDS011;21993;42.672;23.296;2023-05-10T02:56:34;5.33;;;4.80;;
35891;SDS011;21993;42.672;23.296;2023-05-10T02:59:01;7.80;;;5.83;;
35891;SDS011;21993;42.672;23.296;2023-05-10T03:01:27;6.53;;;5.00;;
35891;SDS011;21993;42.672;23.296;2023-05-10T03:03:52;6.23;;;4.87;;
35891;SDS011;21993;42.672;23.296;2023-05-10T03:06:18;10.10;;;4.90;;
35891;SDS011;21993;42.672;23.296;2023-05-10T03:08:44;8.10;;;5.57;;
35891;SDS011;21993;42.672;23.296;2023-05-10T03:13:56;7.03;;;5.40;;
35891;SDS011;21993;42.672;23.296;2023-05-10T03:16:29;5.47;;;4.97;;
35891;SDS011;21993;42.672;23.296;2023-05-10T03:19:24;7.07;;;5.13;;
35891;SDS011;21993;42.672;23.296;2023-05-10T03:21:55;6.23;;;5.10;;
35891;SDS011;21993;42.672;23.296;2023-05-10T03:24:27;5.37;;;4.87;;
35891;SDS011;21993;42.672;23.296;2023-05-10T03:26:55;5.40;;;4.67;;
35891;SDS011;21993;42.672;23.296;2023-05-10T03:29:24;5.30;;;4.80;;
35891;SDS011;21993;42.672;23.296;2023-05-10T03:31:51;12.27;;;5.50;;
35891;SDS011;21993;42.672;23.296;2023-05-10T03:34:16;7.10;;;6.20;;
35891;SDS011;21993;42.672;23.296;2023-05-10T03:36:42;6.53;;;4.70;;
35891;SDS011;21993;42.672;23.296;2023-05-10T03:39:07;5.33;;;4.83;;
35891;SDS011;21993;42.672;23.296;2023-05-10T03:41:33;5.87;;;5.30;;
35891;SDS011;21993;42.672;23.296;2023-05-10T03:43:59;5.33;;;4.87;;
35891;SDS011;21993;42.672;23.296;2023-05-10T03:46:25;5.90;;;4.47;;
35891;SDS011;21993;42.672;23.296;2023-05-10T03:48:50;6.93;;;5.37;;
35891;SDS011;21993;42.672;23.296;2023-05-10T03:51:15;7.07;;;5.23;;
35891;SDS011;21993;42.672;23.296;2023-05-10T03:53:41;5.47;;;4.80;;
35891;SDS011;21993;42.672;23.296;2023-05-10T03:56:06;7.23;;;4.70;;
35891;SDS011;21993;42.672;23.296;2023-05-10T03:58:31;4.90;;;4.40;;
35891;SDS011;21993;42.672;23.296;2023-05-10T04:00:57;8.13;;;4.73;;
35891;SDS011;21993;42.672;23.296;2023-05-10T04:03:22;5.60;;;4.97;;
35891;SDS011;21993;42.672;23.296;2023-05-10T04:05:48;8.10;;;4.60;;
35891;SDS011;21993;42.672;23.296;2023-05-10T04:08:13;6.60;;;4.73;;
35891;SDS011;21993;42.672;23.296;2023-05-10T04:10:41;5.83;;;4.37;;
35891;SDS011;21993;42.672;23.296;2023-05-10T04:13:06;6.87;;;5.93;;
35891;SDS011;21993;42.672;23.296;2023-05-10T04:15:32;5.77;;;4.80;;
35891;SDS011;21993;42.672;23.296;2023-05-10T04:17:57;5.20;;;4.57;;
35891;SDS011;21993;42.672;23.296;2023-05-10T04:20:22;6.80;;;4.87;;
35891;SDS011;21993;42.672;23.296;2023-05-10T04:22:48;6.17;;;4.63;;
35891;SDS011;21993;42.672;23.296;2023-05-10T04:25:13;6.87;;;5.07;;
35891;SDS011;21993;42.672;23.296;2023-05-10T04:27:39;7.90;;;5.13;;
35891;SDS011;21993;42.672;23.296;2023-05-10T04:30:04;6.57;;;5.40;;
35891;SDS011;21993;42.672;23.296;2023-05-10T04:32:30;6.87;;;5.00;;
35891;SDS011;21993;42.672;23.296;2023-05-10T04:34:56;5.77;;;4.77;;
35891;SDS011;21993;42.672;23.296;2023-05-10T04:37:23;8.27;;;4.60;;
35891;SDS011;21993;42.672;23.296;2023-05-10T04:39:48;6.20;;;4.73;;
35891;SDS011;21993;42.672;23.296;2023-05-10T04:42:13;5.83;;;4.50;;
35891;SDS011;21993;42.672;23.296;2023-05-10T04:44:40;6.67;;;5.07;;
35891;SDS011;21993;42.672;23.296;2023-05-10T04:47:05;5.67;;;5.07;;
35891;SDS011;21993;42.672;23.296;2023-05-10T04:49:31;6.53;;;5.10;;
35891;SDS011;21993;42.672;23.296;2023-05-10T04:51:57;6.50;;;5.37;;
35891;SDS011;21993;42.672;23.296;2023-05-10T04:54:22;8.77;;;5.23;;
35891;SDS011;21993;42.672;23.296;2023-05-10T04:56:47;6.37;;;5.70;;
35891;SDS011;21993;42.672;23.296;2023-05-10T04:59:13;6.53;;;4.53;;
35891;SDS011;21993;42.672;23.296;2023-05-10T05:01:39;8.20;;;5.47;;
35891;SDS011;21993;42.672;23.296;2023-05-10T05:04:04;6.57;;;5.00;;
35891;SDS011;21993;42.672;23.296;2023-05-10T05:06:30;7.53;;;5.23;;
35891;SDS011;21993;42.672;23.296;2023-05-10T05:08:55;7.50;;;5.70;;
35891;SDS011;21993;42.672;23.296;2023-05-10T05:11:21;8.37;;;6.00;;
35891;SDS011;21993;42.672;23.296;2023-05-10T05:13:46;9.90;;;5.70;;
35891;SDS011;21993;42.672;23.296;2023-05-10T05:16:12;6.80;;;5.40;;
35891;SDS011;21993;42.672;23.296;2023-05-10T05:18:37;8.03;;;5.70;;
35891;SDS011;21993;42.672;23.296;2023-05-10T05:21:02;8.33;;;6.27;;
35891;SDS011;21993;42.672;23.296;2023-05-10T05:23:28;9.83;;;6.37;;
35891;SDS011;21993;42.672;23.296;2023-05-10T05:25:53;7.90;;;6.50;;
35891;SDS011;21993;42.672;23.296;2023-05-10T05:28:19;9.07;;;6.07;;
35891;SDS011;21993;42.672;23.296;2023-05-10T05:30:46;7.80;;;6.27;;
35891;SDS011;21993;42.672;23.296;2023-05-10T05:33:13;7.13;;;5.93;;
35891;SDS011;21993;42.672;23.296;2023-05-10T05:35:39;6.17;;;5.57;;
35891;SDS011;21993;42.672;23.296;2023-05-10T05:38:04;8.80;;;6.13;;
35891;SDS011;21993;42.672;23.296;2023-05-10T05:40:30;7.93;;;6.33;;
35891;SDS011;21993;42.672;23.296;2023-05-10T05:42:55;9.63;;;6.40;;
35891;SDS011;21993;42.672;23.296;2023-05-10T05:45:20;8.77;;;6.93;;
35891;SDS011;21993;42.672;23.296;2023-05-10T05:47:46;8.17;;;6.30;;
35891;SDS011;21993;42.672;23.296;2023-05-10T05:50:12;8.63;;;6.27;;
35891;SDS011;21993;42.672;23.296;2023-05-10T05:52:37;7.73;;;6.53;;
35891;SDS011;21993;42.672;23.296;2023-05-10T05:55:03;11.50;;;6.63;;
35891;SDS011;21993;42.672;23.296;2023-05-10T05:57:28;8.17;;;6.57;;
35891;SDS011;21993;42.672;23.296;2023-05-10T05:59:54;9.67;;;7.07;;
35891;SDS011;21993;42.672;23.296;2023-05-10T06:02:19;11.37;;;8.40;;
35891;SDS011;21993;42.672;23.296;2023-05-10T06:04:44;11.50;;;7.20;;
35891;SDS011;21993;42.672;23.296;2023-05-10T06:07:10;13.07;;;7.63;;
35891;SDS011;21993;42.672;23.296;2023-05-10T06:09:35;11.97;;;7.90;;
35891;SDS011;21993;42.672;23.296;2023-05-10T06:12:00;9.93;;;7.10;;
35891;SDS011;21993;42.672;23.296;2023-05-10T06:14:26;15.27;;;8.07;;
35891;SDS011;21993;42.672;23.296;2023-05-10T06:16:52;9.90;;;7.57;;
35891;SDS011;21993;42.672;23.296;2023-05-10T06:19:17;11.63;;;7.90;;
35891;SDS011;21993;42.672;23.296;2023-05-10T06:21:43;12.17;;;8.47;;
35891;SDS011;21993;42.672;23.296;2023-05-10T06:24:08;15.03;;;8.97;;
35891;SDS011;21993;42.672;23.296;2023-05-10T06:26:34;12.20;;;8.23;;
35891;SDS011;21993;42.672;23.296;2023-05-10T06:28:59;10.97;;;8.00;;
35891;SDS011;21993;42.672;23.296;2023-05-10T06:31:24;12.80;;;8.00;;
35891;SDS011;21993;42.672;23.296;2023-05-10T06:33:50;10.47;;;8.07;;
35891;SDS011;21993;42.672;23.296;2023-05-10T06:36:15;11.40;;;8.13;;
35891;SDS011;21993;42.672;23.296;2023-05-10T06:38:41;12.37;;;8.37;;
35891;SDS011;21993;42.672;23.296;2023-05-10T06:41:06;12.97;;;8.17;;
35891;SDS011;21993;42.672;23.296;2023-05-10T06:43:31;11.30;;;8.20;;
35891;SDS011;21993;42.672;23.296;2023-05-10T06:45:57;10.80;;;7.60;;
35891;SDS011;21993;42.672;23.296;2023-05-10T06:48:22;9.53;;;7.50;;
35891;SDS011;21993;42.672;23.296;2023-05-10T06:50:48;11.43;;;8.33;;
35891;SDS011;21993;42.672;23.296;2023-05-10T06:53:13;11.53;;;7.80;;
35891;SDS011;21993;42.672;23.296;2023-05-10T06:55:39;11.47;;;8.20;;
35891;SDS011;21993;42.672;23.296;2023-05-10T06:58:04;10.90;;;8.60;;
35891;SDS011;21993;42.672;23.296;2023-05-10T07:00:30;13.10;;;8.00;;
35891;SDS011;21993;42.672;23.296;2023-05-10T07:02:55;11.70;;;8.17;;
35891;SDS011;21993;42.672;23.296;2023-05-10T07:05:20;10.73;;;7.83;;
35891;SDS011;21993;42.672;23.296;2023-05-10T07:07:46;10.80;;;8.20;;
35891;SDS011;21993;42.672;23.296;2023-05-10T07:10:12;11.87;;;7.80;;
35891;SDS011;21993;42.672;23.296;2023-05-10T07:12:37;13.97;;;8.20;;
35891;SDS011;21993;42.672;23.296;2023-05-10T07:15:03;11.27;;;8.37;;
35891;SDS011;21993;42.672;23.296;2023-05-10T07:17:29;10.57;;;7.87;;
35891;SDS011;21993;42.672;23.296;2023-05-10T07:19:54;11.30;;;8.43;;
35891;SDS011;21993;42.672;23.296;2023-05-10T07:22:20;10.03;;;7.83;;
35891;SDS011;21993;42.672;23.296;2023-05-10T07:24:45;12.60;;;8.10;;
35891;SDS011;21993;42.672;23.296;2023-05-10T07:27:11;9.80;;;7.37;;
35891;SDS011;21993;42.672;23.296;2023-05-10T07:29:37;14.10;;;7.87;;
35891;SDS011;21993;42.672;23.296;2023-05-10T07:32:03;9.47;;;7.37;;
35891;SDS011;21993;42.672;23.296;2023-05-10T07:34:29;12.87;;;7.60;;
35891;SDS011;21993;42.672;23.296;2023-05-10T07:36:56;10.80;;;7.30;;
35891;SDS011;21993;42.672;23.296;2023-05-10T07:39:23;15.13;;;8.67;;
35891;SDS011;21993;42.672;23.296;2023-05-10T07:41:48;13.83;;;8.80;;
35891;SDS011;21993;42.672;23.296;2023-05-10T07:44:14;11.53;;;7.70;;
35891;SDS011;21993;42.672;23.296;2023-05-10T07:46:39;12.07;;;8.70;;
35891;SDS011;21993;42.672;23.296;2023-05-10T07:49:05;10.73;;;8.13;;
35891;SDS011;21993;42.672;23.296;2023-05-10T07:51:30;13.87;;;8.30;;
35891;SDS011;21993;42.672;23.296;2023-05-10T07:53:56;11.23;;;8.63;;
35891;SDS011;21993;42.672;23.296;2023-05-10T07:56:26;10.97;;;8.07;;
35891;SDS011;21993;42.672;23.296;2023-05-10T07:58:57;10.57;;;8.40;;
35891;SDS011;21993;42.672;23.296;2023-05-10T08:01:24;10.33;;;8.30;;
35891;SDS011;21993;42.672;23.296;2023-05-10T08:03:50;14.20;;;8.83;;
35891;SDS011;21993;42.672;23.296;2023-05-10T08:06:17;13.60;;;8.57;;
35891;SDS011;21993;42.672;23.296;2023-05-10T08:08:43;10.07;;;8.23;;
35891;SDS011;21993;42.672;23.296;2023-05-10T08:11:13;10.10;;;8.13;;
35891;SDS011;21993;42.672;23.296;2023-05-10T08:13:39;14.10;;;8.43;;
35891;SDS011;21993;42.672;23.296;2023-05-10T08:16:04;13.13;;;9.00;;
35891;SDS011;21993;42.672;23.296;2023-05-10T08:18:30;11.43;;;8.23;;
35891;SDS011;21993;42.672;23.296;2023-05-10T08:20:55;12.17;;;8.60;;
35891;SDS011;21993;42.672;23.296;2023-05-10T08:23:21;13.73;;;8.47;;
35891;SDS011;21993;42.672;23.296;2023-05-10T08:25:46;11.97;;;8.60;;
35891;SDS011;21993;42.672;23.296;2023-05-10T08:28:11;12.47;;;9.60;;
35891;SDS011;21993;42.672;23.296;2023-05-10T08:30:37;14.97;;;8.70;;
35891;SDS011;21993;42.672;23.296;2023-05-10T08:33:02;13.60;;;9.10;;
35891;SDS011;21993;42.672;23.296;2023-05-10T08:35:27;12.53;;;9.23;;
35891;SDS011;21993;42.672;23.296;2023-05-10T08:37:53;11.37;;;8.00;;
35891;SDS011;21993;42.672;23.296;2023-05-10T08:40:19;12.00;;;8.83;;
35891;SDS011;21993;42.672;23.296;2023-05-10T08:42:46;11.57;;;8.50;;
35891;SDS011;21993;42.672;23.296;2023-05-10T08:45:20;10.60;;;8.73;;
35891;SDS011;21993;42.672;23.296;2023-05-10T08:47:48;12.47;;;9.17;;
35891;SDS011;21993;42.672;23.296;2023-05-10T08:50:14;11.47;;;9.07;;
35891;SDS011;21993;42.672;23.296;2023-05-10T08:52:42;10.83;;;8.63;;
35891;SDS011;21993;42.672;23.296;2023-05-10T08:55:10;14.47;;;10.03;;
35891;SDS011;21993;42.672;23.296;2023-05-10T08:57:35;11.10;;;8.70;;
35891;SDS011;21993;42.672;23.296;2023-05-10T09:00:01;14.30;;;10.70;;
35891;SDS011;21993;42.672;23.296;2023-05-10T09:02:27;10.97;;;9.30;;
35891;SDS011;21993;42.672;23.296;2023-05-10T09:04:52;11.70;;;8.60;;
35891;SDS011;21993;42.672;23.296;2023-05-10T09:07:18;12.60;;;9.50;;
35891;SDS011;21993;42.672;23.296;2023-05-10T09:09:45;13.70;;;9.60;;
35891;SDS011;21993;42.672;23.296;2023-05-10T09:12:11;12.33;;;9.53;;
35891;SDS011;21993;42.672;23.296;2023-05-10T09:14:38;11.73;;;9.20;;
35891;SDS011;21993;42.672;23.296;2023-05-10T09:17:04;12.97;;;9.63;;
35891;SDS011;21993;42.672;23.296;2023-05-10T09:19:30;11.47;;;9.80;;
35891;SDS011;21993;42.672;23.296;2023-05-10T09:21:55;10.00;;;9.00;;
35891;SDS011;21993;42.672;23.296;2023-05-10T09:24:25;15.07;;;10.10;;
35891;SDS011;21993;42.672;23.296;2023-05-10T09:26:51;11.10;;;9.17;;
35891;SDS011;21993;42.672;23.296;2023-05-10T09:29:17;11.07;;;8.50;;
35891;SDS011;21993;42.672;23.296;2023-05-10T09:31:46;13.27;;;9.70;;
35891;SDS011;21993;42.672;23.296;2023-05-10T09:34:19;13.63;;;10.17;;
35891;SDS011;21993;42.672;23.296;2023-05-10T09:39:19;12.93;;;10.00;;
35891;SDS011;21993;42.672;23.296;2023-05-10T09:41:45;12.43;;;10.33;;
35891;SDS011;21993;42.672;23.296;2023-05-10T09:44:11;11.33;;;8.93;;
35891;SDS011;21993;42.672;23.296;2023-05-10T09:46:42;14.27;;;8.83;;
35891;SDS011;21993;42.672;23.296;2023-05-10T09:49:08;11.03;;;9.43;;
35891;SDS011;21993;42.672;23.296;2023-05-10T09:51:34;14.93;;;10.33;;
35891;SDS011;21993;42.672;23.296;2023-05-10T09:54:09;13.07;;;10.00;;
35891;SDS011;21993;42.672;23.296;2023-05-10T09:56:36;14.33;;;9.50;;
35891;SDS011;21993;42.672;23.296;2023-05-10T09:59:04;11.70;;;9.87;;
35891;SDS011;21993;42.672;23.296;2023-05-10T10:01:30;13.30;;;9.67;;
35891;SDS011;21993;42.672;23.296;2023-05-10T10:03:56;15.50;;;10.87;;
35891;SDS011;21993;42.672;23.296;2023-05-10T10:06:23;12.10;;;9.87;;
35891;SDS011;21993;42.672;23.296;2023-05-10T10:08:50;13.10;;;9.37;;
35891;SDS011;21993;42.672;23.296;2023-05-10T10:11:16;11.27;;;9.33;;
35891;SDS011;21993;42.672;23.296;2023-05-10T10:13:42;14.43;;;9.90;;
35891;SDS011;21993;42.672;23.296;2023-05-10T10:16:08;26.30;;;10.30;;
35891;SDS011;21993;42.672;23.296;2023-05-10T10:18:33;13.90;;;9.60;;
35891;SDS011;21993;42.672;23.296;2023-05-10T10:21:03;11.73;;;9.57;;
35891;SDS011;21993;42.672;23.296;2023-05-10T10:23:31;13.17;;;8.30;;
35891;SDS011;21993;42.672;23.296;2023-05-10T10:25:56;10.37;;;8.90;;
35891;SDS011;21993;42.672;23.296;2023-05-10T10:31:14;10.40;;;7.73;;
35891;SDS011;21993;42.672;23.296;2023-05-10T10:33:56;10.33;;;8.10;;
35891;SDS011;21993;42.672;23.296;2023-05-10T10:36:26;11.93;;;9.47;;
35891;SDS011;21993;42.672;23.296;2023-05-10T10:38:58;14.63;;;8.67;;
35891;SDS011;21993;42.672;23.296;2023-05-10T10:46:59;12.57;;;7.77;;
35891;SDS011;21993;42.672;23.296;2023-05-10T10:49:50;8.90;;;7.70;;
35891;SDS011;21993;42.672;23.296;2023-05-10T10:52:41;18.27;;;10.50;;
35891;SDS011;21993;42.672;23.296;2023-05-10T10:55:17;8.97;;;7.53;;
35891;SDS011;21993;42.672;23.296;2023-05-10T10:57:45;8.90;;;7.63;;
35891;SDS011;21993;42.672;23.296;2023-05-10T11:00:20;11.87;;;7.67;;
35891;SDS011;21993;42.672;23.296;2023-05-10T11:02:51;8.17;;;7.13;;
35891;SDS011;21993;42.672;23.296;2023-05-10T11:07:56;9.47;;;7.70;;
35891;SDS011;21993;42.672;23.296;2023-05-10T11:10:24;11.10;;;8.67;;
35891;SDS011;21993;42.672;23.296;2023-05-10T11:13:00;12.00;;;7.53;;
35891;SDS011;21993;42.672;23.296;2023-05-10T11:17:58;13.27;;;8.90;;
35891;SDS011;21993;42.672;23.296;2023-05-10T11:20:26;10.57;;;7.47;;
35891;SDS011;21993;42.672;23.296;2023-05-10T11:22:58;10.80;;;7.27;;
35891;SDS011;21993;42.672;23.296;2023-05-10T11:25:40;18.33;;;7.23;;
35891;SDS011;21993;42.672;23.296;2023-05-10T11:28:09;8.97;;;7.37;;
35891;SDS011;21993;42.672;23.296;2023-05-10T11:30:36;11.30;;;7.87;;
35891;SDS011;21993;42.672;23.296;2023-05-10T11:33:03;12.47;;;8.10;;
35891;SDS011;21993;42.672;23.296;2023-05-10T11:35:28;12.90;;;8.00;;
35891;SDS011;21993;42.672;23.296;2023-05-10T11:37:54;15.60;;;9.00;;
35891;SDS011;21993;42.672;23.296;2023-05-10T11:40:21;15.87;;;8.03;;
35891;SDS011;21993;42.672;23.296;2023-05-10T11:42:49;7.97;;;6.40;;
35891;SDS011;21993;42.672;23.296;2023-05-10T11:45:15;11.13;;;9.10;;
35891;SDS011;21993;42.672;23.296;2023-05-10T11:47:41;8.17;;;7.37;;
35891;SDS011;21993;42.672;23.296;2023-05-10T11:50:08;11.43;;;7.50;;
35891;SDS011;21993;42.672;23.296;2023-05-10T11:52:35;11.10;;;7.63;;
35891;SDS011;21993;42.672;23.296;2023-05-10T11:55:02;8.63;;;7.40;;
35891;SDS011;21993;42.672;23.296;2023-05-10T11:57:28;9.07;;;6.97;;
35891;SDS011;21993;42.672;23.296;2023-05-10T11:59:54;8.37;;;6.77;;
35891;SDS011;21993;42.672;23.296;2023-05-10T12:02:21;9.47;;;6.90;;
35891;SDS011;21993;42.672;23.296;2023-05-10T12:04:46;9.83;;;7.77;;
35891;SDS011;21993;42.672;23.296;2023-05-10T12:07:12;10.33;;;6.97;;
35891;SDS011;21993;42.672;23.296;2023-05-10T12:09:41;9.87;;;7.80;;
35891;SDS011;21993;42.672;23.296;2023-05-10T12:12:08;11.93;;;7.93;;
35891;SDS011;21993;42.672;23.296;2023-05-10T12:14:34;10.57;;;8.87;;
35891;SDS011;21993;42.672;23.296;2023-05-10T12:17:00;9.87;;;8.87;;
35891;SDS011;21993;42.672;23.296;2023-05-10T12:19:26;11.57;;;8.50;;
35891;SDS011;21993;42.672;23.296;2023-05-10T12:21:51;9.87;;;7.47;;
35891;SDS011;21993;42.672;23.296;2023-05-10T12:24:16;10.30;;;7.80;;
35891;SDS011;21993;42.672;23.296;2023-05-10T12:26:43;13.07;;;8.03;;
35891;SDS011;21993;42.672;23.296;2023-05-10T12:34:27;12.67;;;7.50;;
35891;SDS011;21993;42.672;23.296;2023-05-10T12:36:56;11.10;;;8.87;;
35891;SDS011;21993;42.672;23.296;2023-05-10T12:39:21;14.47;;;9.77;;
35891;SDS011;21993;42.672;23.296;2023-05-10T12:41:47;11.07;;;8.33;;
35891;SDS011;21993;42.672;23.296;2023-05-10T12:44:12;9.83;;;8.03;;
35891;SDS011;21993;42.672;23.296;2023-05-10T12:46:37;10.17;;;8.40;;
35891;SDS011;21993;42.672;23.296;2023-05-10T12:49:03;13.80;;;9.87;;
35891;SDS011;21993;42.672;23.296;2023-05-10T12:51:28;13.20;;;9.07;;
35891;SDS011;21993;42.672;23.296;2023-05-10T12:53:54;10.60;;;8.90;;
35891;SDS011;21993;42.672;23.296;2023-05-10T12:56:20;12.20;;;8.40;;
35891;SDS011;21993;42.672;23.296;2023-05-10T12:58:45;8.80;;;7.53;;
35891;SDS011;21993;42.672;23.296;2023-05-10T13:01:13;11.90;;;8.37;;
35891;SDS011;21993;42.672;23.296;2023-05-10T13:03:39;13.20;;;9.20;;
35891;SDS011;21993;42.672;23.296;2023-05-10T13:06:04;11.67;;;9.30;;
35891;SDS011;21993;42.672;23.296;2023-05-10T13:08:31;13.47;;;8.50;;
35891;SDS011;21993;42.672;23.296;2023-05-10T13:10:58;12.60;;;8.63;;
35891;SDS011;21993;42.672;23.296;2023-05-10T13:13:24;11.20;;;8.03;;
35891;SDS011;21993;42.672;23.296;2023-05-10T13:15:50;11.43;;;8.03;;
35891;SDS011;21993;42.672;23.296;2023-05-10T13:18:15;10.57;;;8.60;;
35891;SDS011;21993;42.672;23.296;2023-05-10T13:20:41;10.67;;;8.43;;
35891;SDS011;21993;42.672;23.296;2023-05-10T13:23:08;12.50;;;8.73;;
35891;SDS011;21993;42.672;23.296;2023-05-10T13:25:33;17.47;;;8.03;;
35891;SDS011;21993;42.672;23.296;2023-05-10T13:27:59;12.27;;;7.87;;
35891;SDS011;21993;42.672;23.296;2023-05-10T13:30:25;11.00;;;8.40;;
35891;SDS011;21993;42.672;23.296;2023-05-10T13:32:50;13.70;;;9.57;;
35891;SDS011;21993;42.672;23.296;2023-05-10T13:35:16;12.20;;;7.73;;
35891;SDS011;21993;42.672;23.296;2023-05-10T13:37:41;11.90;;;8.93;;
35891;SDS011;21993;42.672;23.296;2023-05-10T13:40:06;12.67;;;8.57;;
35891;SDS011;21993;42.672;23.296;2023-05-10T13:42:32;11.03;;;8.43;;
35891;SDS011;21993;42.672;23.296;2023-05-10T13:44:58;10.90;;;7.90;;
35891;SDS011;21993;42.672;23.296;2023-05-10T13:47:26;9.13;;;7.90;;
35891;SDS011;21993;42.672;23.296;2023-05-10T13:49:51;10.63;;;8.10;;
35891;SDS011;21993;42.672;23.296;2023-05-10T13:52:17;12.77;;;8.00;;
35891;SDS011;21993;42.672;23.296;2023-05-10T13:54:43;12.23;;;8.20;;
35891;SDS011;21993;42.672;23.296;2023-05-10T13:57:08;13.23;;;8.20;;
35891;SDS011;21993;42.672;23.296;2023-05-10T13:59:34;10.50;;;8.30;;
35891;SDS011;21993;42.672;23.296;2023-05-10T14:01:59;12.47;;;8.20;;
35891;SDS011;21993;42.672;23.296;2023-05-10T14:04:27;12.23;;;8.07;;
35891;SDS011;21993;42.672;23.296;2023-05-10T14:06:53;9.87;;;8.10;;
35891;SDS011;21993;42.672;23.296;2023-05-10T14:09:18;12.23;;;8.47;;
35891;SDS011;21993;42.672;23.296;2023-05-10T14:11:44;11.13;;;7.70;;
35891;SDS011;21993;42.672;23.296;2023-05-10T14:14:10;11.23;;;7.70;;
35891;SDS011;21993;42.672;23.296;2023-05-10T14:16:36;11.87;;;8.13;;
35891;SDS011;21993;42.672;23.296;2023-05-10T14:19:02;14.90;;;9.87;;
35891;SDS011;21993;42.672;23.296;2023-05-10T14:21:27;11.00;;;8.13;;
35891;SDS011;21993;42.672;23.296;2023-05-10T14:23:56;10.63;;;7.47;;
35891;SDS011;21993;42.672;23.296;2023-05-10T14:26:22;8.07;;;7.10;;
35891;SDS011;21993;42.672;23.296;2023-05-10T14:28:47;11.03;;;7.73;;
35891;SDS011;21993;42.672;23.296;2023-05-10T14:31:13;11.70;;;8.10;;
35891;SDS011;21993;42.672;23.296;2023-05-10T14:33:39;14.17;;;8.20;;
35891;SDS011;21993;42.672;23.296;2023-05-10T14:36:05;11.97;;;8.67;;
35891;SDS011;21993;42.672;23.296;2023-05-10T14:38:31;10.33;;;8.67;;
35891;SDS011;21993;42.672;23.296;2023-05-10T14:40:56;12.83;;;8.90;;
35891;SDS011;21993;42.672;23.296;2023-05-10T14:43:22;9.67;;;7.90;;
35891;SDS011;21993;42.672;23.296;2023-05-10T14:45:47;10.00;;;7.73;;
35891;SDS011;21993;42.672;23.296;2023-05-10T14:48:13;10.70;;;7.90;;
35891;SDS011;21993;42.672;23.296;2023-05-10T14:50:41;12.77;;;8.77;;
35891;SDS011;21993;42.672;23.296;2023-05-10T14:55:59;12.03;;;8.67;;
35891;SDS011;21993;42.672;23.296;2023-05-10T14:58:26;11.30;;;8.23;;
35891;SDS011;21993;42.672;23.296;2023-05-10T15:00:52;12.70;;;8.83;;
35891;SDS011;21993;42.672;23.296;2023-05-10T15:03:17;13.20;;;7.87;;
35891;SDS011;21993;42.672;23.296;2023-05-10T15:05:43;12.77;;;8.07;;